createdAt,value
2023-02-25T00:00:38.781Z,4.16
2023-02-25T00:03:05.963Z,4.17
2023-02-25T00:05:33.698Z,4.13
2023-02-25T00:08:00.849Z,4.19
2023-02-25T00:10:28.339Z,4.15
2023-02-25T00:12:57.460Z,4.21
2023-02-25T00:15:27.586Z,4.25
2023-02-25T00:17:54.440Z,4.33
2023-02-25T00:20:22.514Z,4.37
2023-02-25T00:22:49.834Z,4.39
2023-02-25T00:25:19.735Z,4.40
2023-02-25T00:27:46.633Z,4.38
2023-02-25T00:30:13.671Z,4.36
2023-02-25T00:32:40.625Z,4.32
2023-02-25T00:35:13.043Z,4.42
2023-02-25T00:37:40.003Z,4.30
2023-02-25T00:40:14.866Z,4.25
2023-02-25T00:42:42.599Z,4.13
2023-02-25T00:45:11.390Z,4.22
2023-02-25T00:47:39.098Z,4.22
2023-02-25T00:50:09.725Z,4.18
2023-02-25T00:52:37.813Z,4.19
2023-02-25T00:55:06.460Z,4.16
2023-02-25T00:57:33.427Z,4.15
2023-02-25T01:00:00.276Z,4.12
2023-02-25T01:02:27.144Z,4.14
2023-02-25T01:04:53.993Z,4.06
2023-02-25T01:07:21.919Z,4.15
2023-02-25T01:09:48.856Z,4.22
2023-02-25T01:12:15.731Z,4.26
2023-02-25T01:14:44.935Z,4.22
2023-02-25T01:17:11.792Z,4.25
2023-02-25T01:19:39.441Z,4.24
2023-02-25T01:22:07.362Z,4.19
2023-02-25T01:24:34.824Z,4.26
2023-02-25T01:27:03.723Z,4.19
2023-02-25T01:29:34.540Z,4.21
2023-02-25T01:32:03.767Z,4.21
2023-02-25T01:34:31.490Z,4.05
2023-02-25T01:37:00.124Z,4.17
2023-02-25T01:39:28.842Z,4.14
2023-02-25T01:41:58.029Z,4.14
2023-02-25T01:44:30.176Z,4.24
2023-02-25T01:46:57.281Z,4.22
2023-02-25T01:49:32.732Z,4.20
2023-02-25T01:52:13.146Z,4.23
2023-02-25T01:54:40.839Z,4.22
2023-02-25T01:57:11.791Z,4.22
2023-02-25T01:59:40.328Z,4.18
2023-02-25T02:02:14.167Z,4.14
2023-02-25T02:04:43.112Z,4.28
2023-02-25T02:07:10.627Z,4.28
2023-02-25T02:09:37.726Z,4.47
2023-02-25T02:12:06.941Z,4.52
2023-02-25T02:14:42.172Z,4.60
2023-02-25T02:17:35.956Z,4.72
2023-02-25T02:20:13.279Z,4.62
2023-02-25T02:23:16.657Z,4.71
2023-02-25T02:25:43.503Z,4.65
2023-02-25T02:28:40.648Z,4.63
2023-02-25T02:31:19.709Z,4.71
2023-02-25T02:33:55.435Z,4.61
2023-02-25T02:36:34.358Z,4.64
2023-02-25T02:39:15.893Z,4.63
2023-02-25T02:42:03.003Z,4.64
2023-02-25T02:44:37.737Z,4.54
2023-02-25T02:47:16.461Z,4.57
2023-02-25T02:49:55.367Z,4.61
2023-02-25T02:52:33.111Z,4.71
2023-02-25T02:55:05.167Z,4.78
2023-02-25T02:57:36.407Z,4.84
2023-02-25T03:00:19.550Z,4.91
2023-02-25T03:02:59.438Z,4.87
2023-02-25T03:05:29.846Z,4.81
2023-02-25T03:08:05.814Z,4.81
2023-02-25T03:10:33.752Z,4.79
2023-02-25T03:13:00.678Z,4.72
2023-02-25T03:27:38.788Z,3.96
2023-02-25T03:30:15.187Z,4.09
2023-02-25T03:32:46.689Z,4.18
2023-02-25T03:35:17.481Z,4.26
2023-02-25T03:37:49.114Z,4.30
2023-02-25T03:40:18.138Z,4.40
2023-02-25T03:42:52.536Z,4.50
2023-02-25T03:45:21.463Z,4.56
2023-02-25T03:47:48.935Z,4.65
2023-02-25T03:50:23.774Z,4.68
2023-02-25T03:52:55.408Z,4.64
2023-02-25T03:55:41.137Z,4.63
2023-02-25T03:58:09.359Z,4.61
2023-02-25T04:00:41.125Z,4.59
2023-02-25T04:03:08.010Z,4.66
2023-02-25T04:05:36.286Z,4.72
2023-02-25T04:08:03.827Z,4.68
2023-02-25T04:10:34.373Z,4.80
2023-02-25T04:13:01.299Z,4.85
2023-02-25T04:15:29.484Z,4.89
2023-02-25T04:17:56.343Z,4.91
2023-02-25T04:20:23.156Z,4.99
2023-02-25T04:22:49.970Z,4.91
2023-02-25T04:25:16.807Z,4.91
2023-02-25T04:27:43.658Z,4.99
2023-02-25T04:30:11.266Z,5.02
2023-02-25T04:32:38.314Z,4.94
2023-02-25T04:35:07.461Z,4.97
2023-02-25T04:37:34.233Z,5.02
2023-02-25T04:40:01.205Z,5.10
2023-02-25T04:42:28.044Z,5.19
2023-02-25T04:44:55.195Z,5.22
2023-02-25T04:47:22.067Z,5.26
2023-02-25T04:49:48.856Z,5.26
2023-02-25T04:52:16.505Z,5.21
2023-02-25T04:54:43.452Z,5.32
2023-02-25T04:57:11.239Z,5.35
2023-02-25T04:59:38.572Z,5.49
2023-02-25T05:02:06.248Z,5.65
2023-02-25T05:04:34.953Z,5.78
2023-02-25T05:07:02.303Z,5.92
2023-02-25T05:09:29.388Z,5.99
2023-02-25T05:11:56.366Z,6.18
2023-02-25T05:14:23.433Z,6.32
2023-02-25T05:16:50.371Z,6.50
2023-02-25T05:19:19.295Z,6.58
2023-02-25T05:21:46.392Z,6.77
2023-02-25T05:24:13.285Z,6.96
2023-02-25T05:26:40.319Z,7.03
2023-02-25T05:29:07.386Z,7.05
2023-02-25T05:31:34.630Z,7.25
2023-02-25T05:34:01.883Z,7.38
2023-02-25T05:36:29.587Z,7.49
2023-02-25T05:39:03.031Z,7.79
2023-02-25T05:41:30.782Z,8.12
2023-02-25T05:43:58.459Z,8.49
2023-02-25T05:46:26.797Z,8.87
2023-02-25T05:48:54.487Z,9.32
2023-02-25T05:51:23.609Z,9.48
2023-02-25T05:53:53.737Z,9.72
2023-02-25T05:56:23.351Z,9.93
2023-02-25T05:58:50.790Z,10.51
2023-02-25T06:01:22.861Z,11.23
2023-02-25T06:03:51.789Z,11.27
2023-02-25T06:06:24.595Z,12.24
2023-02-25T06:08:52.099Z,13.09
2023-02-25T06:11:22.075Z,13.50
2023-02-25T06:13:50.640Z,13.77
2023-02-25T06:16:18.336Z,13.73
2023-02-25T06:18:47.104Z,14.13
2023-02-25T06:21:15.403Z,14.38
2023-02-25T06:23:44.069Z,15.05
2023-02-25T06:26:13.765Z,15.12
2023-02-25T06:28:40.987Z,14.53
2023-02-25T06:31:14.342Z,15.07
2023-02-25T06:33:41.421Z,15.13
2023-02-25T06:36:09.238Z,16.08
2023-02-25T06:38:36.601Z,16.91
2023-02-25T06:41:08.667Z,15.28
2023-02-25T06:43:37.001Z,16.42
2023-02-25T06:46:08.399Z,15.51
2023-02-25T06:48:35.798Z,15.93
2023-02-25T06:51:04.828Z,15.87
2023-02-25T06:53:31.716Z,15.49
2023-02-25T06:55:59.042Z,16.23
2023-02-25T06:58:26.008Z,16.60
2023-02-25T07:00:53.023Z,15.69
2023-02-25T07:03:19.860Z,16.52
2023-02-25T07:05:46.828Z,17.32
2023-02-25T07:08:13.763Z,17.84
2023-02-25T07:10:41.755Z,16.89
2023-02-25T07:13:09.768Z,17.50
2023-02-25T07:15:37.162Z,18.00
2023-02-25T07:18:04.466Z,17.64
2023-02-25T07:20:31.369Z,19.10
2023-02-25T07:22:58.250Z,18.77
2023-02-25T07:25:25.237Z,18.45
2023-02-25T07:27:54.425Z,19.24
2023-02-25T07:30:21.693Z,19.55
2023-02-25T07:32:48.833Z,19.48
2023-02-25T07:35:15.931Z,19.51
2023-02-25T07:37:42.813Z,20.46
2023-02-25T07:40:13.073Z,20.67
2023-02-25T07:42:43.259Z,20.53
2023-02-25T07:45:12.234Z,20.58
2023-02-25T07:47:39.088Z,21.39
2023-02-25T07:50:07.902Z,21.63
2023-02-25T07:52:34.961Z,20.23
2023-02-25T07:55:01.863Z,20.39
2023-02-25T07:57:29.188Z,21.12
2023-02-25T07:59:56.441Z,21.43
2023-02-25T08:02:23.372Z,21.35
2023-02-25T08:04:50.392Z,20.57
2023-02-25T08:07:17.722Z,20.38
2023-02-25T08:09:44.602Z,20.63
2023-02-25T08:12:11.583Z,20.91
2023-02-25T08:14:40.021Z,20.78
2023-02-25T08:17:06.977Z,20.35
2023-02-25T08:19:33.889Z,20.91
2023-02-25T08:22:00.683Z,20.68
2023-02-25T08:24:27.937Z,21.06
2023-02-25T08:26:54.907Z,20.73
2023-02-25T08:29:22.230Z,22.17
2023-02-25T08:31:52.516Z,22.43
2023-02-25T08:34:19.519Z,23.92
2023-02-25T08:36:46.335Z,23.48
2023-02-25T08:39:13.447Z,22.83
2023-02-25T08:41:40.295Z,22.90
2023-02-25T08:44:07.243Z,23.84
2023-02-25T08:46:37.221Z,24.00
2023-02-25T08:49:05.360Z,24.09
2023-02-25T08:51:35.591Z,23.04
2023-02-25T08:54:12.065Z,23.52
2023-02-25T08:56:44.274Z,22.88
2023-02-25T08:59:14.884Z,23.07
2023-02-25T09:01:45.418Z,23.37
2023-02-25T09:04:14.000Z,22.40
2023-02-25T09:06:41.020Z,22.20
2023-02-25T09:09:08.069Z,23.05
2023-02-25T09:11:35.083Z,24.59
2023-02-25T09:14:01.945Z,22.75
2023-02-25T09:16:30.437Z,23.66
2023-02-25T09:18:57.913Z,23.30
2023-02-25T09:21:25.289Z,23.81
2023-02-25T09:23:52.875Z,24.05
2023-02-25T09:26:21.654Z,24.16
2023-02-25T09:28:49.819Z,24.56
2023-02-25T09:31:18.193Z,24.52
2023-02-25T09:33:45.658Z,24.18
2023-02-25T09:36:17.606Z,23.78
2023-02-25T09:38:45.663Z,24.42
2023-02-25T09:41:39.139Z,24.90
2023-02-25T09:44:08.658Z,23.85
2023-02-25T09:46:41.553Z,24.33
2023-02-25T09:49:34.590Z,25.30
2023-02-25T09:52:13.547Z,25.71
2023-02-25T09:54:46.946Z,26.78
2023-02-25T09:57:19.282Z,24.58
2023-02-25T09:59:47.491Z,25.13
2023-02-25T10:02:41.028Z,24.18
2023-02-25T10:05:21.738Z,25.63
2023-02-25T10:08:19.108Z,26.38
2023-02-25T10:11:06.271Z,26.45
2023-02-25T10:13:54.396Z,25.40
2023-02-25T10:16:39.599Z,25.99
2023-02-25T10:19:37.830Z,27.26
2023-02-25T10:22:08.103Z,26.30
2023-02-25T10:24:42.383Z,26.38
2023-02-25T10:27:24.787Z,25.80
2023-02-25T10:29:59.924Z,26.53
2023-02-25T10:32:31.463Z,26.12
2023-02-25T10:35:13.878Z,27.54
2023-02-25T10:37:40.748Z,28.61
2023-02-25T10:40:11.389Z,27.79
2023-02-25T10:42:38.619Z,25.96
2023-02-25T10:45:14.497Z,27.12
2023-02-25T10:47:45.253Z,26.94
2023-02-25T10:50:15.016Z,26.36
2023-02-25T10:53:16.049Z,27.61
2023-02-25T10:55:54.702Z,26.82
2023-02-25T10:58:27.977Z,25.55
2023-02-25T11:01:10.773Z,24.40
2023-02-25T11:03:54.650Z,24.77
2023-02-25T11:06:32.466Z,25.46
2023-02-25T11:09:01.204Z,25.64
2023-02-25T11:11:34.083Z,26.20
2023-02-25T11:14:07.433Z,26.01
2023-02-25T11:16:37.239Z,26.73
2023-02-25T11:19:25.457Z,25.52
2023-02-25T11:21:53.337Z,25.00
2023-02-25T11:24:33.561Z,22.29
2023-02-25T11:27:02.537Z,23.91
2023-02-25T11:29:34.049Z,26.03
2023-02-25T11:32:22.818Z,25.18
2023-02-25T11:34:53.455Z,26.61
2023-02-25T11:37:45.465Z,27.31
2023-02-25T11:40:21.990Z,25.50
2023-02-25T11:43:07.054Z,25.47
2023-02-25T11:45:38.544Z,24.42
2023-02-25T11:48:16.639Z,24.16
2023-02-25T11:51:05.430Z,23.37
2023-02-25T11:53:52.296Z,23.20
2023-02-25T11:56:25.468Z,23.13
2023-02-25T11:59:31.512Z,22.82
2023-02-25T12:02:04.165Z,23.38
2023-02-25T12:05:06.075Z,23.55
2023-02-25T12:08:14.083Z,23.80
2023-02-25T12:10:59.092Z,24.69
2023-02-25T12:13:36.306Z,23.96
2023-02-25T12:16:12.299Z,22.19
2023-02-25T12:18:51.389Z,20.96
2023-02-25T12:21:47.816Z,20.05
2023-02-25T12:24:21.394Z,19.79
2023-02-25T12:27:08.598Z,19.96
2023-02-25T12:29:41.388Z,19.91
2023-02-25T12:32:33.766Z,19.70
2023-02-25T12:35:07.043Z,19.31
2023-02-25T12:37:46.080Z,19.15
2023-02-25T12:40:39.184Z,19.31
2023-02-25T12:43:30.868Z,19.47
2023-02-25T12:46:35.104Z,19.29
2023-02-25T12:49:25.196Z,19.18
2023-02-25T12:52:10.132Z,19.29
2023-02-25T12:55:28.456Z,19.27
2023-02-25T12:58:29.981Z,19.44
2023-02-25T13:01:02.871Z,19.40
2023-02-25T13:03:48.255Z,19.07
2023-02-25T13:06:27.164Z,19.09
2023-02-25T13:09:16.088Z,19.22
2023-02-25T13:12:16.962Z,19.46
2023-02-25T13:15:25.816Z,19.62
2023-02-25T13:18:07.185Z,20.06
2023-02-25T13:21:05.005Z,19.85
2023-02-25T13:23:36.034Z,19.81
2023-02-25T13:26:23.457Z,19.50
2023-02-25T13:29:05.178Z,19.33
2023-02-25T13:31:47.132Z,19.29
2023-02-25T13:34:16.933Z,19.18
2023-02-25T13:36:49.898Z,19.10
2023-02-25T13:39:47.655Z,18.98
2023-02-25T13:42:43.961Z,18.86
2023-02-25T13:45:46.533Z,18.97
2023-02-25T13:48:26.265Z,18.91
2023-02-25T13:50:59.147Z,18.90
2023-02-25T13:54:03.369Z,18.90
2023-02-25T13:56:51.667Z,18.75
2023-02-25T13:59:33.874Z,18.68
2023-02-25T14:02:34.407Z,18.77
2023-02-25T14:05:23.989Z,18.77
2023-02-25T14:08:10.109Z,18.73
2023-02-25T14:11:03.314Z,18.78
2023-02-25T14:13:57.439Z,18.65
2023-02-25T14:16:33.012Z,18.70
2023-02-25T14:19:02.938Z,18.66
2023-02-25T14:21:59.010Z,18.67
2023-02-25T14:24:42.276Z,18.63
2023-02-25T14:27:25.255Z,18.59
2023-02-25T14:30:19.972Z,18.66
2023-02-25T14:33:18.484Z,18.47
2023-02-25T14:36:26.724Z,18.46
2023-02-25T14:39:20.601Z,18.44
2023-02-25T14:41:52.539Z,18.31
2023-02-25T14:44:30.299Z,18.31
2023-02-25T14:47:02.807Z,18.40
2023-02-25T14:49:54.818Z,18.52
2023-02-25T14:52:49.230Z,18.51
2023-02-25T14:55:16.338Z,18.66
2023-02-25T14:58:19.453Z,18.62
2023-02-25T15:01:07.544Z,18.55
2023-02-25T15:04:02.443Z,18.42
2023-02-25T15:07:06.982Z,18.33
2023-02-25T15:09:36.672Z,18.05
2023-02-25T15:12:16.906Z,17.91
2023-02-25T15:29:59.018Z,17.11
2023-02-25T15:32:30.509Z,17.18
2023-02-25T15:34:59.430Z,17.19
2023-02-25T15:37:55.300Z,17.21
2023-02-25T15:40:24.381Z,17.16
2023-02-25T15:42:51.524Z,17.17
2023-02-25T15:45:27.666Z,17.16
2023-02-25T15:48:06.818Z,17.11
2023-02-25T15:50:42.932Z,17.05
2023-02-25T15:53:12.029Z,17.06
2023-02-25T15:55:41.633Z,16.98
2023-02-25T15:58:23.650Z,16.86
2023-02-25T16:01:01.923Z,16.93
2023-02-25T16:03:31.766Z,16.86
2023-02-25T16:06:04.404Z,16.90
2023-02-25T16:08:47.191Z,16.90
2023-02-25T16:11:35.298Z,16.88
2023-02-25T16:14:17.401Z,16.75
2023-02-25T16:16:51.583Z,16.75
2023-02-25T16:19:22.842Z,16.67
2023-02-25T16:21:56.064Z,16.56
2023-02-25T16:24:23.684Z,16.59
2023-02-25T16:27:04.141Z,16.56
2023-02-25T16:30:02.822Z,16.45
2023-02-25T16:32:41.617Z,16.35
2023-02-25T16:35:18.602Z,16.32
2023-02-25T16:38:09.582Z,16.36
2023-02-25T16:40:39.555Z,16.32
2023-02-25T16:43:11.889Z,16.25
2023-02-25T16:45:53.144Z,16.21
2023-02-25T16:48:27.761Z,16.15
2023-02-25T16:50:55.818Z,16.15
2023-02-25T16:53:26.947Z,16.14
2023-02-25T16:56:00.563Z,16.06
2023-02-25T16:58:30.573Z,16.01
2023-02-25T17:00:59.205Z,16.02
2023-02-25T17:03:33.192Z,16.01
2023-02-25T17:06:06.963Z,15.97
2023-02-25T17:08:35.134Z,15.85
2023-02-25T17:11:05.720Z,15.79
2023-02-25T17:13:36.704Z,15.75
2023-02-25T17:16:05.644Z,15.73
2023-02-25T17:18:48.904Z,15.64
2023-02-25T17:21:27.304Z,15.73
2023-02-25T17:23:54.574Z,15.77
2023-02-25T17:26:21.898Z,15.67
2023-02-25T17:28:52.639Z,15.74
2023-02-25T17:31:26.877Z,15.72
2023-02-25T17:34:02.822Z,15.74
2023-02-25T17:36:32.266Z,15.74
2023-02-25T17:39:06.221Z,15.64
2023-02-25T17:41:34.708Z,15.63
2023-02-25T17:44:01.655Z,15.63
2023-02-25T17:46:36.425Z,15.63
2023-02-25T17:49:18.199Z,15.52
2023-02-25T17:51:45.539Z,15.57
2023-02-25T17:54:18.620Z,15.51
2023-02-25T17:56:46.275Z,15.51
2023-02-25T17:59:13.010Z,15.47
2023-02-25T18:01:53.988Z,15.45
2023-02-25T18:04:22.433Z,15.38
2023-02-25T18:06:49.435Z,15.31
2023-02-25T18:09:49.611Z,15.31
2023-02-25T18:12:26.429Z,15.27
2023-02-25T18:15:16.619Z,15.20
2023-02-25T18:17:49.046Z,15.19
2023-02-25T18:20:30.697Z,15.14
2023-02-25T18:23:02.468Z,15.13
2023-02-25T18:25:31.312Z,15.04
2023-02-25T18:27:58.916Z,15.07
2023-02-25T18:30:27.982Z,15.03
2023-02-25T18:32:55.385Z,15.03
2023-02-25T18:35:22.362Z,15.05
2023-02-25T18:37:51.522Z,15.03
2023-02-25T18:40:31.863Z,15.03
2023-02-25T18:43:00.110Z,15.04
2023-02-25T18:45:29.568Z,14.95
2023-02-25T18:47:57.298Z,14.85
2023-02-25T18:50:25.002Z,14.80
2023-02-25T18:52:51.910Z,14.68
2023-02-25T18:55:27.776Z,14.69
2023-02-25T18:57:54.926Z,14.70
2023-02-25T19:00:24.211Z,14.69
2023-02-25T19:02:58.084Z,14.70
2023-02-25T19:05:25.953Z,14.62
2023-02-25T19:07:53.069Z,14.62
2023-02-25T19:10:24.949Z,14.61
2023-02-25T19:12:58.760Z,14.44
2023-02-25T19:15:25.657Z,14.54
2023-02-25T19:17:52.639Z,14.42
2023-02-25T19:20:20.652Z,14.43
2023-02-25T19:22:50.691Z,14.41
2023-02-25T19:25:22.997Z,14.32
2023-02-25T19:27:51.187Z,14.20
2023-02-25T19:30:21.933Z,14.21
2023-02-25T19:32:48.959Z,14.12
2023-02-25T19:35:16.377Z,14.10
2023-02-25T19:37:43.965Z,14.03
2023-02-25T19:40:14.719Z,13.97
2023-02-25T19:42:43.339Z,13.85
2023-02-25T19:45:15.721Z,13.85
2023-02-25T19:47:43.034Z,13.84
2023-02-25T19:50:11.774Z,13.82
2023-02-25T19:52:38.848Z,13.81
2023-02-25T19:55:06.558Z,13.77
2023-02-25T19:57:33.946Z,13.77
2023-02-25T20:00:00.905Z,13.77
2023-02-25T20:02:27.747Z,13.75
2023-02-25T20:04:54.727Z,13.76
2023-02-25T20:07:21.643Z,13.69
2023-02-25T20:09:48.607Z,13.66
2023-02-25T20:12:15.614Z,13.67
2023-02-25T20:14:42.519Z,13.66
2023-02-25T20:17:09.460Z,13.66
2023-02-25T20:19:36.613Z,13.64
2023-02-25T20:22:05.670Z,13.60
2023-02-25T20:24:33.802Z,13.58
2023-02-25T20:27:01.030Z,13.63
2023-02-25T20:29:28.580Z,13.53
2023-02-25T20:31:58.824Z,13.48
2023-02-25T20:34:26.547Z,13.43
2023-02-25T20:36:53.385Z,13.35
2023-02-25T20:39:44.075Z,13.32
2023-02-25T20:42:17.765Z,13.27
2023-02-25T20:44:44.884Z,13.24
2023-02-25T20:47:20.199Z,13.25
2023-02-25T20:49:47.884Z,13.26
2023-02-25T20:52:16.093Z,13.26
2023-02-25T20:54:43.875Z,13.17
2023-02-25T20:57:15.700Z,13.25
2023-02-25T20:59:42.632Z,13.19
2023-02-25T21:02:11.487Z,13.28
2023-02-25T21:04:38.700Z,13.22
2023-02-25T21:07:07.140Z,13.19
2023-02-25T21:09:34.728Z,13.17
2023-02-25T21:12:02.178Z,13.16
2023-02-25T21:14:29.114Z,13.12
2023-02-25T21:16:56.287Z,13.08
2023-02-25T21:19:28.217Z,13.10
2023-02-25T21:21:55.936Z,13.03
2023-02-25T21:24:23.176Z,13.06
2023-02-25T21:26:50.325Z,13.06
2023-02-25T21:29:17.288Z,13.05
2023-02-25T21:31:44.406Z,13.05
2023-02-25T21:34:13.075Z,13.05
2023-02-25T21:36:41.472Z,13.02
2023-02-25T21:39:12.753Z,13.05
2023-02-25T21:41:44.390Z,13.08
2023-02-25T21:44:12.330Z,13.04
2023-02-25T21:46:40.099Z,13.06
2023-02-25T21:49:07.122Z,13.08
2023-02-25T21:51:34.137Z,13.11
2023-02-25T21:54:01.568Z,13.15
2023-02-25T21:56:30.009Z,13.15
2023-02-25T21:58:59.536Z,13.15
2023-02-25T22:01:32.657Z,13.11
2023-02-25T22:04:00.068Z,13.11
2023-02-25T22:06:27.657Z,13.10
2023-02-25T22:08:55.846Z,13.11
2023-02-25T22:11:31.667Z,13.11
2023-02-25T22:13:59.925Z,13.16
2023-02-25T22:16:27.581Z,13.19
2023-02-25T22:18:54.712Z,13.16
2023-02-25T22:21:26.172Z,13.12
2023-02-25T22:23:55.936Z,13.13
2023-02-25T22:26:25.721Z,13.13
2023-02-25T22:28:55.112Z,13.07
2023-02-25T22:31:22.474Z,13.14
2023-02-25T22:33:49.712Z,13.16
2023-02-25T22:36:18.414Z,13.18
2023-02-25T22:38:46.762Z,13.14
2023-02-25T22:41:15.368Z,13.05
2023-02-25T22:43:43.012Z,13.15
2023-02-25T22:46:13.040Z,13.04
2023-02-25T22:48:41.777Z,13.08
2023-02-25T22:51:11.946Z,13.10
2023-02-25T22:53:40.495Z,13.04
2023-02-25T22:56:09.850Z,13.06
2023-02-25T22:58:40.776Z,13.09
2023-02-25T23:01:09.452Z,13.01
2023-02-25T23:03:38.597Z,13.06
2023-02-25T23:06:06.786Z,13.13
2023-02-25T23:08:35.168Z,13.07
2023-02-25T23:11:09.275Z,13.17
2023-02-25T23:13:36.890Z,13.18
2023-02-25T23:16:04.675Z,13.18
2023-02-25T23:18:33.634Z,13.17
2023-02-25T23:21:05.769Z,13.27
2023-02-25T23:23:38.680Z,13.28
2023-02-25T23:26:08.429Z,13.30
2023-02-25T23:28:36.709Z,13.32
2023-02-25T23:31:04.745Z,13.28
2023-02-25T23:33:32.167Z,13.37
2023-02-25T23:36:01.279Z,13.26
2023-02-25T23:38:28.199Z,13.34
2023-02-25T23:41:01.325Z,13.32
2023-02-25T23:43:28.146Z,13.26
2023-02-25T23:45:55.061Z,13.25
2023-02-25T23:48:22.006Z,13.24
2023-02-25T23:50:48.904Z,13.19
2023-02-25T23:53:15.952Z,13.16
2023-02-25T23:55:42.803Z,13.18
2023-02-25T23:58:09.686Z,13.16
